sensor_id;sensor_type;location;lat;lon;timestamp;P1;durP1;ratioP1;P2;durP2;ratioP2
12218;SDS011;6172;42.646;23.344;2023-07-13T00:01:53;4.88;;;3.70;;
12218;SDS011;6172;42.646;23.344;2023-07-13T00:04:21;6.75;;;3.47;;
12218;SDS011;6172;42.646;23.344;2023-07-13T00:06:51;5.80;;;3.65;;
12218;SDS011;6172;42.646;23.344;2023-07-13T00:09:18;6.22;;;3.28;;
12218;SDS011;6172;42.646;23.344;2023-07-13T00:11:50;4.18;;;3.55;;
12218;SDS011;6172;42.646;23.344;2023-07-13T00:14:23;5.47;;;3.53;;
12218;SDS011;6172;42.646;23.344;2023-07-13T00:16:50;9.13;;;3.63;;
12218;SDS011;6172;42.646;23.344;2023-07-13T00:19:17;4.90;;;3.42;;
12218;SDS011;6172;42.646;23.344;2023-07-13T00:21:44;5.50;;;3.58;;
12218;SDS011;6172;42.646;23.344;2023-07-13T00:24:12;7.78;;;4.10;;
12218;SDS011;6172;42.646;23.344;2023-07-13T00:26:40;7.20;;;3.80;;
12218;SDS011;6172;42.646;23.344;2023-07-13T00:29:09;10.82;;;4.05;;
12218;SDS011;6172;42.646;23.344;2023-07-13T00:31:38;5.75;;;3.80;;
12218;SDS011;6172;42.646;23.344;2023-07-13T00:34:05;7.57;;;4.15;;
12218;SDS011;6172;42.646;23.344;2023-07-13T00:36:32;7.35;;;4.03;;
12218;SDS011;6172;42.646;23.344;2023-07-13T00:38:59;3.90;;;3.45;;
12218;SDS011;6172;42.646;23.344;2023-07-13T00:41:26;4.63;;;3.88;;
12218;SDS011;6172;42.646;23.344;2023-07-13T00:43:52;7.63;;;3.25;;
12218;SDS011;6172;42.646;23.344;2023-07-13T00:46:21;4.90;;;3.92;;
12218;SDS011;6172;42.646;23.344;2023-07-13T00:48:53;4.00;;;3.58;;
12218;SDS011;6172;42.646;23.344;2023-07-13T00:51:25;7.45;;;3.67;;
12218;SDS011;6172;42.646;23.344;2023-07-13T00:53:58;4.65;;;3.53;;
12218;SDS011;6172;42.646;23.344;2023-07-13T00:56:26;6.05;;;3.30;;
12218;SDS011;6172;42.646;23.344;2023-07-13T00:58:54;6.03;;;3.40;;
12218;SDS011;6172;42.646;23.344;2023-07-13T01:01:23;6.38;;;3.65;;
12218;SDS011;6172;42.646;23.344;2023-07-13T01:03:51;5.72;;;3.20;;
12218;SDS011;6172;42.646;23.344;2023-07-13T01:06:19;4.20;;;3.40;;
12218;SDS011;6172;42.646;23.344;2023-07-13T01:08:46;5.20;;;3.42;;
12218;SDS011;6172;42.646;23.344;2023-07-13T01:11:13;8.30;;;3.53;;
12218;SDS011;6172;42.646;23.344;2023-07-13T01:13:45;5.10;;;4.07;;
12218;SDS011;6172;42.646;23.344;2023-07-13T01:16:13;5.03;;;3.75;;
12218;SDS011;6172;42.646;23.344;2023-07-13T01:18:44;7.53;;;4.43;;
12218;SDS011;6172;42.646;23.344;2023-07-13T01:21:12;7.80;;;4.35;;
12218;SDS011;6172;42.646;23.344;2023-07-13T01:23:39;5.50;;;4.25;;
12218;SDS011;6172;42.646;23.344;2023-07-13T01:26:06;6.03;;;4.28;;
12218;SDS011;6172;42.646;23.344;2023-07-13T01:28:33;7.68;;;3.88;;
12218;SDS011;6172;42.646;23.344;2023-07-13T01:31:02;6.00;;;3.90;;
12218;SDS011;6172;42.646;23.344;2023-07-13T01:33:29;7.15;;;3.97;;
12218;SDS011;6172;42.646;23.344;2023-07-13T01:35:56;8.30;;;4.63;;
12218;SDS011;6172;42.646;23.344;2023-07-13T01:38:25;7.25;;;3.47;;
12218;SDS011;6172;42.646;23.344;2023-07-13T01:40:53;5.82;;;3.30;;
12218;SDS011;6172;42.646;23.344;2023-07-13T01:43:20;4.85;;;3.72;;
12218;SDS011;6172;42.646;23.344;2023-07-13T01:45:47;6.68;;;3.53;;
12218;SDS011;6172;42.646;23.344;2023-07-13T01:48:14;6.25;;;3.83;;
12218;SDS011;6172;42.646;23.344;2023-07-13T01:50:41;6.88;;;4.20;;
12218;SDS011;6172;42.646;23.344;2023-07-13T01:53:08;4.80;;;4.05;;
12218;SDS011;6172;42.646;23.344;2023-07-13T01:55:36;6.63;;;3.38;;
12218;SDS011;6172;42.646;23.344;2023-07-13T01:58:03;5.57;;;3.65;;
12218;SDS011;6172;42.646;23.344;2023-07-13T02:00:31;5.93;;;3.72;;
12218;SDS011;6172;42.646;23.344;2023-07-13T02:02:58;5.60;;;4.07;;
12218;SDS011;6172;42.646;23.344;2023-07-13T02:05:25;5.85;;;3.42;;
12218;SDS011;6172;42.646;23.344;2023-07-13T02:07:53;3.95;;;3.45;;
12218;SDS011;6172;42.646;23.344;2023-07-13T02:10:19;7.32;;;3.63;;
12218;SDS011;6172;42.646;23.344;2023-07-13T02:12:49;4.72;;;4.05;;
12218;SDS011;6172;42.646;23.344;2023-07-13T02:15:16;7.90;;;3.72;;
12218;SDS011;6172;42.646;23.344;2023-07-13T02:17:44;5.15;;;3.72;;
12218;SDS011;6172;42.646;23.344;2023-07-13T02:20:10;7.90;;;4.03;;
12218;SDS011;6172;42.646;23.344;2023-07-13T02:22:37;9.68;;;3.88;;
12218;SDS011;6172;42.646;23.344;2023-07-13T02:25:04;7.95;;;4.38;;
12218;SDS011;6172;42.646;23.344;2023-07-13T02:27:31;4.28;;;3.83;;
12218;SDS011;6172;42.646;23.344;2023-07-13T02:30:00;5.65;;;3.90;;
12218;SDS011;6172;42.646;23.344;2023-07-13T02:32:27;4.43;;;3.70;;
12218;SDS011;6172;42.646;23.344;2023-07-13T02:34:54;6.30;;;3.97;;
12218;SDS011;6172;42.646;23.344;2023-07-13T02:37:21;5.97;;;3.95;;
12218;SDS011;6172;42.646;23.344;2023-07-13T02:39:48;7.20;;;4.10;;
12218;SDS011;6172;42.646;23.344;2023-07-13T02:42:16;4.35;;;3.92;;
12218;SDS011;6172;42.646;23.344;2023-07-13T02:44:43;5.97;;;4.25;;
12218;SDS011;6172;42.646;23.344;2023-07-13T02:47:11;9.35;;;4.68;;
12218;SDS011;6172;42.646;23.344;2023-07-13T02:49:39;9.63;;;5.03;;
12218;SDS011;6172;42.646;23.344;2023-07-13T02:52:06;8.88;;;4.13;;
12218;SDS011;6172;42.646;23.344;2023-07-13T02:54:33;8.50;;;4.93;;
12218;SDS011;6172;42.646;23.344;2023-07-13T02:57:00;7.78;;;4.20;;
12218;SDS011;6172;42.646;23.344;2023-07-13T02:59:26;8.90;;;4.35;;
12218;SDS011;6172;42.646;23.344;2023-07-13T03:01:53;9.88;;;4.53;;
12218;SDS011;6172;42.646;23.344;2023-07-13T03:04:22;9.07;;;4.93;;
12218;SDS011;6172;42.646;23.344;2023-07-13T03:06:48;8.93;;;4.68;;
12218;SDS011;6172;42.646;23.344;2023-07-13T03:09:16;5.43;;;4.25;;
12218;SDS011;6172;42.646;23.344;2023-07-13T03:11:42;5.65;;;4.13;;
12218;SDS011;6172;42.646;23.344;2023-07-13T03:14:09;9.63;;;4.88;;
12218;SDS011;6172;42.646;23.344;2023-07-13T03:16:36;8.57;;;4.75;;
12218;SDS011;6172;42.646;23.344;2023-07-13T03:19:03;7.45;;;4.43;;
12218;SDS011;6172;42.646;23.344;2023-07-13T03:21:31;12.02;;;5.80;;
12218;SDS011;6172;42.646;23.344;2023-07-13T03:23:58;9.85;;;4.80;;
12218;SDS011;6172;42.646;23.344;2023-07-13T03:26:25;7.35;;;4.97;;
12218;SDS011;6172;42.646;23.344;2023-07-13T03:28:52;7.10;;;4.50;;
12218;SDS011;6172;42.646;23.344;2023-07-13T03:31:21;7.85;;;4.30;;
12218;SDS011;6172;42.646;23.344;2023-07-13T03:33:49;7.65;;;4.68;;
12218;SDS011;6172;42.646;23.344;2023-07-13T03:36:17;5.78;;;4.40;;
12218;SDS011;6172;42.646;23.344;2023-07-13T03:38:50;5.68;;;4.22;;
12218;SDS011;6172;42.646;23.344;2023-07-13T03:41:19;9.55;;;4.45;;
12218;SDS011;6172;42.646;23.344;2023-07-13T03:43:47;8.13;;;4.60;;
12218;SDS011;6172;42.646;23.344;2023-07-13T03:46:14;8.73;;;4.55;;
12218;SDS011;6172;42.646;23.344;2023-07-13T03:48:41;7.53;;;5.53;;
12218;SDS011;6172;42.646;23.344;2023-07-13T03:51:10;9.65;;;5.18;;
12218;SDS011;6172;42.646;23.344;2023-07-13T03:53:40;5.80;;;5.00;;
12218;SDS011;6172;42.646;23.344;2023-07-13T03:56:09;11.00;;;5.88;;
12218;SDS011;6172;42.646;23.344;2023-07-13T03:58:40;8.18;;;4.90;;
12218;SDS011;6172;42.646;23.344;2023-07-13T04:01:09;5.38;;;4.85;;
12218;SDS011;6172;42.646;23.344;2023-07-13T04:03:37;9.45;;;5.30;;
12218;SDS011;6172;42.646;23.344;2023-07-13T04:06:04;7.55;;;5.40;;
12218;SDS011;6172;42.646;23.344;2023-07-13T04:08:33;9.60;;;5.60;;
12218;SDS011;6172;42.646;23.344;2023-07-13T04:11:02;9.88;;;5.60;;
12218;SDS011;6172;42.646;23.344;2023-07-13T04:13:33;7.10;;;5.38;;
12218;SDS011;6172;42.646;23.344;2023-07-13T04:15:59;9.85;;;5.03;;
12218;SDS011;6172;42.646;23.344;2023-07-13T04:18:26;10.77;;;5.30;;
12218;SDS011;6172;42.646;23.344;2023-07-13T04:20:53;8.70;;;5.95;;
12218;SDS011;6172;42.646;23.344;2023-07-13T04:23:20;10.35;;;6.13;;
12218;SDS011;6172;42.646;23.344;2023-07-13T04:25:47;9.45;;;6.55;;
12218;SDS011;6172;42.646;23.344;2023-07-13T04:28:18;7.55;;;6.18;;
12218;SDS011;6172;42.646;23.344;2023-07-13T04:30:46;9.55;;;6.30;;
12218;SDS011;6172;42.646;23.344;2023-07-13T04:33:13;9.00;;;6.05;;
12218;SDS011;6172;42.646;23.344;2023-07-13T04:35:42;7.63;;;6.32;;
12218;SDS011;6172;42.646;23.344;2023-07-13T04:38:09;10.98;;;7.07;;
12218;SDS011;6172;42.646;23.344;2023-07-13T04:40:37;13.05;;;6.85;;
12218;SDS011;6172;42.646;23.344;2023-07-13T04:43:04;12.35;;;7.60;;
12218;SDS011;6172;42.646;23.344;2023-07-13T04:45:32;10.25;;;7.60;;
12218;SDS011;6172;42.646;23.344;2023-07-13T04:48:02;10.52;;;7.82;;
12218;SDS011;6172;42.646;23.344;2023-07-13T04:50:30;10.95;;;7.22;;
12218;SDS011;6172;42.646;23.344;2023-07-13T04:52:56;11.02;;;7.82;;
12218;SDS011;6172;42.646;23.344;2023-07-13T04:55:24;10.68;;;7.28;;
12218;SDS011;6172;42.646;23.344;2023-07-13T04:57:55;10.35;;;7.90;;
12218;SDS011;6172;42.646;23.344;2023-07-13T05:00:24;10.77;;;8.32;;
12218;SDS011;6172;42.646;23.344;2023-07-13T05:02:51;10.13;;;7.57;;
12218;SDS011;6172;42.646;23.344;2023-07-13T05:05:20;11.50;;;8.27;;
12218;SDS011;6172;42.646;23.344;2023-07-13T05:07:46;8.88;;;7.97;;
12218;SDS011;6172;42.646;23.344;2023-07-13T05:10:13;11.43;;;8.15;;
12218;SDS011;6172;42.646;23.344;2023-07-13T05:12:40;9.48;;;7.57;;
12218;SDS011;6172;42.646;23.344;2023-07-13T05:15:07;16.92;;;7.72;;
12218;SDS011;6172;42.646;23.344;2023-07-13T05:17:34;13.38;;;8.05;;
12218;SDS011;6172;42.646;23.344;2023-07-13T05:20:04;13.27;;;8.48;;
12218;SDS011;6172;42.646;23.344;2023-07-13T05:22:33;15.27;;;8.27;;
12218;SDS011;6172;42.646;23.344;2023-07-13T05:25:00;11.10;;;8.02;;
12218;SDS011;6172;42.646;23.344;2023-07-13T05:27:27;12.55;;;8.07;;
12218;SDS011;6172;42.646;23.344;2023-07-13T05:29:54;11.55;;;8.57;;
12218;SDS011;6172;42.646;23.344;2023-07-13T05:32:21;13.20;;;8.48;;
12218;SDS011;6172;42.646;23.344;2023-07-13T05:34:48;14.27;;;8.38;;
12218;SDS011;6172;42.646;23.344;2023-07-13T05:37:15;10.65;;;9.43;;
12218;SDS011;6172;42.646;23.344;2023-07-13T05:39:43;16.23;;;9.77;;
12218;SDS011;6172;42.646;23.344;2023-07-13T05:42:10;16.30;;;9.20;;
12218;SDS011;6172;42.646;23.344;2023-07-13T05:44:37;9.98;;;8.77;;
12218;SDS011;6172;42.646;23.344;2023-07-13T05:47:04;11.38;;;8.05;;
12218;SDS011;6172;42.646;23.344;2023-07-13T05:49:32;9.68;;;8.38;;
12218;SDS011;6172;42.646;23.344;2023-07-13T05:51:58;13.52;;;8.38;;
12218;SDS011;6172;42.646;23.344;2023-07-13T05:54:26;12.35;;;7.95;;
12218;SDS011;6172;42.646;23.344;2023-07-13T05:56:55;14.40;;;8.00;;
12218;SDS011;6172;42.646;23.344;2023-07-13T05:59:22;12.10;;;8.32;;
12218;SDS011;6172;42.646;23.344;2023-07-13T06:01:48;12.38;;;8.30;;
12218;SDS011;6172;42.646;23.344;2023-07-13T06:04:17;11.60;;;7.72;;
12218;SDS011;6172;42.646;23.344;2023-07-13T06:06:44;12.18;;;7.25;;
12218;SDS011;6172;42.646;23.344;2023-07-13T06:09:10;11.40;;;7.60;;
12218;SDS011;6172;42.646;23.344;2023-07-13T06:11:37;10.73;;;6.88;;
12218;SDS011;6172;42.646;23.344;2023-07-13T06:14:05;12.20;;;7.53;;
12218;SDS011;6172;42.646;23.344;2023-07-13T06:16:32;10.70;;;7.30;;
12218;SDS011;6172;42.646;23.344;2023-07-13T06:18:59;11.65;;;7.63;;
12218;SDS011;6172;42.646;23.344;2023-07-13T06:21:26;12.32;;;7.05;;
12218;SDS011;6172;42.646;23.344;2023-07-13T06:23:53;11.60;;;7.13;;
12218;SDS011;6172;42.646;23.344;2023-07-13T06:26:22;12.40;;;6.75;;
12218;SDS011;6172;42.646;23.344;2023-07-13T06:28:50;10.27;;;6.15;;
12218;SDS011;6172;42.646;23.344;2023-07-13T06:31:18;10.02;;;5.95;;
12218;SDS011;6172;42.646;23.344;2023-07-13T06:33:45;10.35;;;6.35;;
12218;SDS011;6172;42.646;23.344;2023-07-13T06:36:12;6.05;;;4.95;;
12218;SDS011;6172;42.646;23.344;2023-07-13T06:38:39;7.72;;;5.43;;
12218;SDS011;6172;42.646;23.344;2023-07-13T06:41:06;7.22;;;5.28;;
12218;SDS011;6172;42.646;23.344;2023-07-13T06:43:34;6.88;;;5.40;;
12218;SDS011;6172;42.646;23.344;2023-07-13T06:46:01;6.50;;;5.00;;
12218;SDS011;6172;42.646;23.344;2023-07-13T06:48:29;8.70;;;5.75;;
12218;SDS011;6172;42.646;23.344;2023-07-13T06:50:56;11.93;;;5.70;;
12218;SDS011;6172;42.646;23.344;2023-07-13T06:53:23;6.75;;;5.65;;
12218;SDS011;6172;42.646;23.344;2023-07-13T06:55:50;8.75;;;5.53;;
12218;SDS011;6172;42.646;23.344;2023-07-13T06:58:17;6.40;;;5.30;;
12218;SDS011;6172;42.646;23.344;2023-07-13T07:00:45;6.47;;;5.18;;
12218;SDS011;6172;42.646;23.344;2023-07-13T07:03:13;8.57;;;4.75;;
12218;SDS011;6172;42.646;23.344;2023-07-13T07:05:42;5.75;;;5.20;;
12218;SDS011;6172;42.646;23.344;2023-07-13T07:08:09;7.00;;;5.55;;
12218;SDS011;6172;42.646;23.344;2023-07-13T07:10:36;7.93;;;6.15;;
12218;SDS011;6172;42.646;23.344;2023-07-13T07:13:03;6.60;;;5.72;;
12218;SDS011;6172;42.646;23.344;2023-07-13T07:15:30;6.57;;;5.68;;
12218;SDS011;6172;42.646;23.344;2023-07-13T07:17:57;6.40;;;5.40;;
12218;SDS011;6172;42.646;23.344;2023-07-13T07:20:24;7.75;;;6.25;;
12218;SDS011;6172;42.646;23.344;2023-07-13T07:22:54;7.40;;;6.10;;
12218;SDS011;6172;42.646;23.344;2023-07-13T07:25:21;8.52;;;5.78;;
12218;SDS011;6172;42.646;23.344;2023-07-13T07:27:48;7.78;;;6.38;;
12218;SDS011;6172;42.646;23.344;2023-07-13T07:30:15;7.03;;;5.68;;
12218;SDS011;6172;42.646;23.344;2023-07-13T07:32:42;9.57;;;5.80;;
12218;SDS011;6172;42.646;23.344;2023-07-13T07:35:11;7.45;;;5.78;;
12218;SDS011;6172;42.646;23.344;2023-07-13T07:37:39;6.60;;;5.80;;
12218;SDS011;6172;42.646;23.344;2023-07-13T07:40:07;7.70;;;5.82;;
12218;SDS011;6172;42.646;23.344;2023-07-13T07:42:34;7.88;;;5.47;;
12218;SDS011;6172;42.646;23.344;2023-07-13T07:45:01;8.70;;;5.63;;
12218;SDS011;6172;42.646;23.344;2023-07-13T07:47:28;6.68;;;5.22;;
12218;SDS011;6172;42.646;23.344;2023-07-13T07:49:55;6.95;;;5.55;;
12218;SDS011;6172;42.646;23.344;2023-07-13T07:52:22;7.88;;;5.85;;
12218;SDS011;6172;42.646;23.344;2023-07-13T07:54:48;6.35;;;5.65;;
12218;SDS011;6172;42.646;23.344;2023-07-13T07:57:16;7.05;;;5.68;;
12218;SDS011;6172;42.646;23.344;2023-07-13T07:59:43;8.63;;;5.53;;
12218;SDS011;6172;42.646;23.344;2023-07-13T08:02:10;7.63;;;5.80;;
12218;SDS011;6172;42.646;23.344;2023-07-13T08:04:37;7.55;;;6.05;;
12218;SDS011;6172;42.646;23.344;2023-07-13T08:07:04;12.52;;;6.28;;
12218;SDS011;6172;42.646;23.344;2023-07-13T08:09:31;6.30;;;5.70;;
12218;SDS011;6172;42.646;23.344;2023-07-13T08:11:59;9.40;;;6.38;;
12218;SDS011;6172;42.646;23.344;2023-07-13T08:14:27;9.80;;;6.07;;
12218;SDS011;6172;42.646;23.344;2023-07-13T08:16:54;8.68;;;5.53;;
12218;SDS011;6172;42.646;23.344;2023-07-13T08:19:21;6.30;;;5.68;;
12218;SDS011;6172;42.646;23.344;2023-07-13T08:21:48;7.40;;;6.13;;
12218;SDS011;6172;42.646;23.344;2023-07-13T08:24:15;8.40;;;6.22;;
12218;SDS011;6172;42.646;23.344;2023-07-13T08:26:43;6.75;;;6.10;;
12218;SDS011;6172;42.646;23.344;2023-07-13T08:29:11;8.80;;;6.28;;
12218;SDS011;6172;42.646;23.344;2023-07-13T08:31:39;8.68;;;5.93;;
12218;SDS011;6172;42.646;23.344;2023-07-13T08:34:06;12.57;;;6.75;;
12218;SDS011;6172;42.646;23.344;2023-07-13T08:36:33;11.68;;;6.75;;
12218;SDS011;6172;42.646;23.344;2023-07-13T08:39:00;6.80;;;5.60;;
12218;SDS011;6172;42.646;23.344;2023-07-13T08:41:26;7.30;;;6.38;;
12218;SDS011;6172;42.646;23.344;2023-07-13T08:43:56;7.97;;;6.35;;
12218;SDS011;6172;42.646;23.344;2023-07-13T08:46:26;6.30;;;5.70;;
12218;SDS011;6172;42.646;23.344;2023-07-13T08:49:03;7.70;;;6.57;;
12218;SDS011;6172;42.646;23.344;2023-07-13T08:51:35;10.65;;;6.57;;
12218;SDS011;6172;42.646;23.344;2023-07-13T08:54:12;10.88;;;6.43;;
12218;SDS011;6172;42.646;23.344;2023-07-13T08:56:46;9.02;;;5.70;;
12218;SDS011;6172;42.646;23.344;2023-07-13T08:59:18;11.20;;;6.40;;
12218;SDS011;6172;42.646;23.344;2023-07-13T09:01:58;12.02;;;6.22;;
12218;SDS011;6172;42.646;23.344;2023-07-13T09:04:37;6.57;;;5.90;;
12218;SDS011;6172;42.646;23.344;2023-07-13T09:07:11;6.20;;;5.65;;
12218;SDS011;6172;42.646;23.344;2023-07-13T09:09:50;8.20;;;6.03;;
12218;SDS011;6172;42.646;23.344;2023-07-13T09:12:26;8.68;;;6.18;;
12218;SDS011;6172;42.646;23.344;2023-07-13T09:15:02;7.47;;;6.78;;
12218;SDS011;6172;42.646;23.344;2023-07-13T09:17:32;8.90;;;6.57;;
12218;SDS011;6172;42.646;23.344;2023-07-13T09:20:04;8.38;;;6.10;;
12218;SDS011;6172;42.646;23.344;2023-07-13T09:22:41;11.38;;;6.95;;
12218;SDS011;6172;42.646;23.344;2023-07-13T09:25:12;9.80;;;6.85;;
12218;SDS011;6172;42.646;23.344;2023-07-13T09:27:50;10.00;;;6.78;;
12218;SDS011;6172;42.646;23.344;2023-07-13T09:30:23;10.40;;;6.97;;
12218;SDS011;6172;42.646;23.344;2023-07-13T09:32:56;11.77;;;6.93;;
12218;SDS011;6172;42.646;23.344;2023-07-13T09:35:26;13.10;;;6.60;;
12218;SDS011;6172;42.646;23.344;2023-07-13T09:37:57;9.02;;;6.72;;
12218;SDS011;6172;42.646;23.344;2023-07-13T09:40:29;8.00;;;7.03;;
12218;SDS011;6172;42.646;23.344;2023-07-13T09:43:01;9.85;;;6.78;;
12218;SDS011;6172;42.646;23.344;2023-07-13T09:45:30;9.95;;;6.85;;
12218;SDS011;6172;42.646;23.344;2023-07-13T09:48:03;8.98;;;6.45;;
12218;SDS011;6172;42.646;23.344;2023-07-13T09:50:36;7.80;;;6.88;;
12218;SDS011;6172;42.646;23.344;2023-07-13T09:53:03;7.43;;;6.57;;
12218;SDS011;6172;42.646;23.344;2023-07-13T09:55:37;8.07;;;6.82;;
12218;SDS011;6172;42.646;23.344;2023-07-13T09:58:08;10.57;;;6.93;;
12218;SDS011;6172;42.646;23.344;2023-07-13T10:00:37;9.63;;;7.07;;
12218;SDS011;6172;42.646;23.344;2023-07-13T10:03:16;17.38;;;6.82;;
12218;SDS011;6172;42.646;23.344;2023-07-13T10:05:50;10.18;;;6.30;;
12218;SDS011;6172;42.646;23.344;2023-07-13T10:08:19;8.02;;;6.78;;
12218;SDS011;6172;42.646;23.344;2023-07-13T10:10:52;12.20;;;6.90;;
12218;SDS011;6172;42.646;23.344;2023-07-13T10:13:30;12.38;;;6.85;;
12218;SDS011;6172;42.646;23.344;2023-07-13T10:16:02;12.13;;;6.97;;
12218;SDS011;6172;42.646;23.344;2023-07-13T10:18:33;9.98;;;7.15;;
12218;SDS011;6172;42.646;23.344;2023-07-13T10:21:11;10.48;;;6.43;;
12218;SDS011;6172;42.646;23.344;2023-07-13T10:23:40;9.25;;;6.57;;
12218;SDS011;6172;42.646;23.344;2023-07-13T10:26:09;8.13;;;6.57;;
12218;SDS011;6172;42.646;23.344;2023-07-13T10:28:42;9.07;;;5.93;;
12218;SDS011;6172;42.646;23.344;2023-07-13T10:31:14;8.48;;;6.72;;
12218;SDS011;6172;42.646;23.344;2023-07-13T10:33:42;6.50;;;5.00;;
12218;SDS011;6172;42.646;23.344;2023-07-13T10:36:16;8.38;;;5.28;;
12218;SDS011;6172;42.646;23.344;2023-07-13T10:38:47;8.65;;;5.85;;
12218;SDS011;6172;42.646;23.344;2023-07-13T10:41:17;8.23;;;5.10;;
12218;SDS011;6172;42.646;23.344;2023-07-13T10:43:47;6.38;;;4.55;;
12218;SDS011;6172;42.646;23.344;2023-07-13T10:46:18;8.45;;;4.93;;
12218;SDS011;6172;42.646;23.344;2023-07-13T10:48:49;9.52;;;5.35;;
12218;SDS011;6172;42.646;23.344;2023-07-13T10:51:20;7.38;;;4.10;;
12218;SDS011;6172;42.646;23.344;2023-07-13T10:54:10;12.90;;;5.10;;
12218;SDS011;6172;42.646;23.344;2023-07-13T10:56:48;13.48;;;4.93;;
12218;SDS011;6172;42.646;23.344;2023-07-13T10:59:18;7.80;;;5.10;;
12218;SDS011;6172;42.646;23.344;2023-07-13T11:01:53;11.23;;;6.65;;
12218;SDS011;6172;42.646;23.344;2023-07-13T11:04:22;8.07;;;6.18;;
12218;SDS011;6172;42.646;23.344;2023-07-13T11:06:53;7.40;;;6.53;;
12218;SDS011;6172;42.646;23.344;2023-07-13T11:09:31;10.55;;;6.25;;
12218;SDS011;6172;42.646;23.344;2023-07-13T11:12:01;11.00;;;6.95;;
12218;SDS011;6172;42.646;23.344;2023-07-13T11:14:34;9.75;;;6.10;;
12218;SDS011;6172;42.646;23.344;2023-07-13T11:20:08;7.30;;;5.40;;
12218;SDS011;6172;42.646;23.344;2023-07-13T11:22:48;7.45;;;5.13;;
12218;SDS011;6172;42.646;23.344;2023-07-13T11:25:26;6.45;;;5.05;;
12218;SDS011;6172;42.646;23.344;2023-07-13T11:28:05;8.65;;;5.10;;
12218;SDS011;6172;42.646;23.344;2023-07-13T11:30:43;8.88;;;5.35;;
12218;SDS011;6172;42.646;23.344;2023-07-13T11:33:15;10.75;;;5.85;;
12218;SDS011;6172;42.646;23.344;2023-07-13T11:35:46;7.75;;;6.15;;
12218;SDS011;6172;42.646;23.344;2023-07-13T11:38:21;11.02;;;5.50;;
12218;SDS011;6172;42.646;23.344;2023-07-13T11:40:51;6.70;;;4.43;;
12218;SDS011;6172;42.646;23.344;2023-07-13T11:43:23;4.95;;;4.35;;
12218;SDS011;6172;42.646;23.344;2023-07-13T11:45:50;7.03;;;5.10;;
12218;SDS011;6172;42.646;23.344;2023-07-13T11:48:18;8.77;;;4.63;;
12218;SDS011;6172;42.646;23.344;2023-07-13T11:50:56;9.88;;;5.22;;
12218;SDS011;6172;42.646;23.344;2023-07-13T11:53:28;7.80;;;4.57;;
12218;SDS011;6172;42.646;23.344;2023-07-13T11:55:58;9.68;;;4.40;;
12218;SDS011;6172;42.646;23.344;2023-07-13T11:58:26;9.40;;;4.25;;
12218;SDS011;6172;42.646;23.344;2023-07-13T12:00:55;11.02;;;4.72;;
12218;SDS011;6172;42.646;23.344;2023-07-13T12:03:26;8.63;;;4.78;;
12218;SDS011;6172;42.646;23.344;2023-07-13T12:06:00;9.10;;;5.05;;
12218;SDS011;6172;42.646;23.344;2023-07-13T12:08:37;9.20;;;6.07;;
12218;SDS011;6172;42.646;23.344;2023-07-13T12:11:05;7.10;;;5.05;;
12218;SDS011;6172;42.646;23.344;2023-07-13T12:13:41;11.77;;;5.78;;
12218;SDS011;6172;42.646;23.344;2023-07-13T12:16:10;9.35;;;5.35;;
12218;SDS011;6172;42.646;23.344;2023-07-13T12:18:41;10.57;;;5.50;;
12218;SDS011;6172;42.646;23.344;2023-07-13T12:21:12;7.20;;;5.25;;
12218;SDS011;6172;42.646;23.344;2023-07-13T12:23:44;9.43;;;4.88;;
12218;SDS011;6172;42.646;23.344;2023-07-13T12:26:14;6.38;;;5.00;;
12218;SDS011;6172;42.646;23.344;2023-07-13T12:28:45;7.97;;;4.68;;
12218;SDS011;6172;42.646;23.344;2023-07-13T12:31:22;6.90;;;5.10;;
12218;SDS011;6172;42.646;23.344;2023-07-13T12:33:56;10.48;;;4.82;;
12218;SDS011;6172;42.646;23.344;2023-07-13T12:36:23;8.02;;;4.38;;
12218;SDS011;6172;42.646;23.344;2023-07-13T12:38:52;8.90;;;4.47;;
12218;SDS011;6172;42.646;23.344;2023-07-13T12:41:19;9.35;;;4.22;;
12218;SDS011;6172;42.646;23.344;2023-07-13T12:43:48;9.50;;;5.35;;
12218;SDS011;6172;42.646;23.344;2023-07-13T12:46:16;8.10;;;5.03;;
12218;SDS011;6172;42.646;23.344;2023-07-13T12:48:48;8.90;;;4.90;;
12218;SDS011;6172;42.646;23.344;2023-07-13T12:51:17;8.15;;;5.50;;
12218;SDS011;6172;42.646;23.344;2023-07-13T12:53:49;7.93;;;5.22;;
12218;SDS011;6172;42.646;23.344;2023-07-13T12:56:23;8.90;;;5.70;;
12218;SDS011;6172;42.646;23.344;2023-07-13T12:58:54;11.70;;;5.47;;
12218;SDS011;6172;42.646;23.344;2023-07-13T13:01:25;10.93;;;6.00;;
12218;SDS011;6172;42.646;23.344;2023-07-13T13:03:54;7.38;;;5.40;;
12218;SDS011;6172;42.646;23.344;2023-07-13T13:06:22;8.73;;;5.05;;
12218;SDS011;6172;42.646;23.344;2023-07-13T13:08:51;8.15;;;5.15;;
12218;SDS011;6172;42.646;23.344;2023-07-13T13:11:20;6.95;;;5.63;;
12218;SDS011;6172;42.646;23.344;2023-07-13T13:13:51;9.30;;;5.15;;
12218;SDS011;6172;42.646;23.344;2023-07-13T13:16:19;7.65;;;4.90;;
12218;SDS011;6172;42.646;23.344;2023-07-13T13:18:48;8.85;;;4.82;;
12218;SDS011;6172;42.646;23.344;2023-07-13T13:21:16;8.18;;;4.82;;
12218;SDS011;6172;42.646;23.344;2023-07-13T13:23:44;6.60;;;5.25;;
12218;SDS011;6172;42.646;23.344;2023-07-13T13:26:11;7.60;;;5.32;;
12218;SDS011;6172;42.646;23.344;2023-07-13T13:28:42;8.57;;;5.72;;
12218;SDS011;6172;42.646;23.344;2023-07-13T13:31:10;9.45;;;5.18;;
12218;SDS011;6172;42.646;23.344;2023-07-13T13:33:38;7.25;;;5.38;;
12218;SDS011;6172;42.646;23.344;2023-07-13T13:36:12;9.45;;;5.68;;
12218;SDS011;6172;42.646;23.344;2023-07-13T13:38:44;8.23;;;5.28;;
12218;SDS011;6172;42.646;23.344;2023-07-13T13:41:12;7.50;;;5.60;;
12218;SDS011;6172;42.646;23.344;2023-07-13T13:43:42;9.65;;;5.60;;
12218;SDS011;6172;42.646;23.344;2023-07-13T13:46:14;10.82;;;4.78;;
12218;SDS011;6172;42.646;23.344;2023-07-13T13:48:43;6.85;;;5.70;;
12218;SDS011;6172;42.646;23.344;2023-07-13T13:51:15;6.90;;;5.10;;
12218;SDS011;6172;42.646;23.344;2023-07-13T13:53:44;10.32;;;5.60;;
12218;SDS011;6172;42.646;23.344;2023-07-13T13:56:11;8.65;;;5.05;;
12218;SDS011;6172;42.646;23.344;2023-07-13T13:58:38;10.15;;;5.88;;
12218;SDS011;6172;42.646;23.344;2023-07-13T14:01:10;8.43;;;5.30;;
12218;SDS011;6172;42.646;23.344;2023-07-13T14:03:39;9.10;;;5.38;;
12218;SDS011;6172;42.646;23.344;2023-07-13T14:06:07;12.23;;;5.40;;
12218;SDS011;6172;42.646;23.344;2023-07-13T14:08:37;9.02;;;5.40;;
12218;SDS011;6172;42.646;23.344;2023-07-13T14:11:04;8.45;;;5.10;;
12218;SDS011;6172;42.646;23.344;2023-07-13T14:13:32;9.65;;;5.47;;
12218;SDS011;6172;42.646;23.344;2023-07-13T14:16:04;11.45;;;5.28;;
12218;SDS011;6172;42.646;23.344;2023-07-13T14:18:37;6.15;;;4.07;;
12218;SDS011;6172;42.646;23.344;2023-07-13T14:21:08;6.75;;;4.47;;
12218;SDS011;6172;42.646;23.344;2023-07-13T14:23:38;11.30;;;5.35;;
12218;SDS011;6172;42.646;23.344;2023-07-13T14:26:07;10.00;;;5.88;;
12218;SDS011;6172;42.646;23.344;2023-07-13T14:28:36;9.20;;;4.38;;
12218;SDS011;6172;42.646;23.344;2023-07-13T14:31:11;7.95;;;4.75;;
12218;SDS011;6172;42.646;23.344;2023-07-13T14:33:41;9.07;;;5.38;;
12218;SDS011;6172;42.646;23.344;2023-07-13T14:36:20;8.75;;;4.85;;
12218;SDS011;6172;42.646;23.344;2023-07-13T14:38:51;7.70;;;4.68;;
12218;SDS011;6172;42.646;23.344;2023-07-13T14:41:18;10.10;;;5.25;;
12218;SDS011;6172;42.646;23.344;2023-07-13T14:43:45;14.13;;;4.80;;
12218;SDS011;6172;42.646;23.344;2023-07-13T14:46:17;11.07;;;4.53;;
12218;SDS011;6172;42.646;23.344;2023-07-13T14:48:52;9.75;;;4.57;;
12218;SDS011;6172;42.646;23.344;2023-07-13T14:51:25;10.57;;;4.35;;
12218;SDS011;6172;42.646;23.344;2023-07-13T14:53:51;10.57;;;4.72;;
12218;SDS011;6172;42.646;23.344;2023-07-13T14:56:18;9.98;;;3.88;;
12218;SDS011;6172;42.646;23.344;2023-07-13T14:58:46;9.70;;;4.53;;